sensor_id;sensor_type;location;lat;lon;timestamp;temperature;humidity
15713;DHT22;7957;51.608;6.916;2023-04-16T00:00:34;8.80;99.90
15713;DHT22;7957;51.608;6.916;2023-04-16T00:03:01;8.80;99.90
15713;DHT22;7957;51.608;6.916;2023-04-16T00:05:29;8.80;99.90
15713;DHT22;7957;51.608;6.916;2023-04-16T00:07:56;8.80;99.90
15713;DHT22;7957;51.608;6.916;2023-04-16T00:10:25;8.80;99.90
15713;DHT22;7957;51.608;6.916;2023-04-16T00:12:52;8.80;99.90
15713;DHT22;7957;51.608;6.916;2023-04-16T00:15:18;8.80;99.90
15713;DHT22;7957;51.608;6.916;2023-04-16T00:17:45;8.80;99.90
15713;DHT22;7957;51.608;6.916;2023-04-16T00:20:12;8.80;99.90
15713;DHT22;7957;51.608;6.916;2023-04-16T00:22:39;8.80;99.90
15713;DHT22;7957;51.608;6.916;2023-04-16T00:25:07;8.80;99.90
15713;DHT22;7957;51.608;6.916;2023-04-16T00:27:35;8.80;99.90
15713;DHT22;7957;51.608;6.916;2023-04-16T00:30:02;8.80;99.90
15713;DHT22;7957;51.608;6.916;2023-04-16T00:32:29;8.80;99.90
15713;DHT22;7957;51.608;6.916;2023-04-16T00:34:56;8.80;99.90
15713;DHT22;7957;51.608;6.916;2023-04-16T00:37:23;8.80;99.90
15713;DHT22;7957;51.608;6.916;2023-04-16T00:39:50;8.80;99.90
15713;DHT22;7957;51.608;6.916;2023-04-16T00:42:17;8.80;99.90
15713;DHT22;7957;51.608;6.916;2023-04-16T00:44:45;8.80;99.90
15713;DHT22;7957;51.608;6.916;2023-04-16T00:47:12;8.80;99.90
15713;DHT22;7957;51.608;6.916;2023-04-16T00:49:40;8.80;99.90
15713;DHT22;7957;51.608;6.916;2023-04-16T00:52:09;8.80;99.90
15713;DHT22;7957;51.608;6.916;2023-04-16T00:54:37;8.80;99.90
15713;DHT22;7957;51.608;6.916;2023-04-16T00:57:05;8.80;99.90
15713;DHT22;7957;51.608;6.916;2023-04-16T00:59:32;8.80;99.90
15713;DHT22;7957;51.608;6.916;2023-04-16T01:02:01;8.80;99.90
15713;DHT22;7957;51.608;6.916;2023-04-16T01:04:28;8.80;99.90
15713;DHT22;7957;51.608;6.916;2023-04-16T01:06:55;8.80;99.90
15713;DHT22;7957;51.608;6.916;2023-04-16T01:09:22;8.80;99.90
15713;DHT22;7957;51.608;6.916;2023-04-16T01:11:49;8.80;99.90
15713;DHT22;7957;51.608;6.916;2023-04-16T01:14:16;8.80;99.90
15713;DHT22;7957;51.608;6.916;2023-04-16T01:16:43;8.80;99.90
15713;DHT22;7957;51.608;6.916;2023-04-16T01:19:11;8.80;99.90
15713;DHT22;7957;51.608;6.916;2023-04-16T01:21:39;8.80;99.90
15713;DHT22;7957;51.608;6.916;2023-04-16T01:24:06;8.80;99.90
15713;DHT22;7957;51.608;6.916;2023-04-16T01:26:33;8.80;99.90
15713;DHT22;7957;51.608;6.916;2023-04-16T01:29:02;8.80;99.90
15713;DHT22;7957;51.608;6.916;2023-04-16T01:31:29;8.80;99.90
15713;DHT22;7957;51.608;6.916;2023-04-16T01:33:55;8.80;99.90
15713;DHT22;7957;51.608;6.916;2023-04-16T01:36:22;8.80;99.90
15713;DHT22;7957;51.608;6.916;2023-04-16T01:38:52;8.80;99.90
15713;DHT22;7957;51.608;6.916;2023-04-16T01:41:19;8.80;99.90
15713;DHT22;7957;51.608;6.916;2023-04-16T01:43:47;8.80;99.90
15713;DHT22;7957;51.608;6.916;2023-04-16T01:46:17;8.80;99.90
15713;DHT22;7957;51.608;6.916;2023-04-16T01:48:46;8.80;99.90
15713;DHT22;7957;51.608;6.916;2023-04-16T01:51:13;8.80;99.90
15713;DHT22;7957;51.608;6.916;2023-04-16T01:53:40;8.80;99.90
15713;DHT22;7957;51.608;6.916;2023-04-16T01:56:08;8.80;99.90
15713;DHT22;7957;51.608;6.916;2023-04-16T01:58:35;8.80;99.90
15713;DHT22;7957;51.608;6.916;2023-04-16T02:01:03;8.80;99.90
15713;DHT22;7957;51.608;6.916;2023-04-16T02:03:30;8.80;99.90
15713;DHT22;7957;51.608;6.916;2023-04-16T02:05:57;8.80;99.90
15713;DHT22;7957;51.608;6.916;2023-04-16T02:08:25;8.80;99.90
15713;DHT22;7957;51.608;6.916;2023-04-16T02:10:52;8.80;99.90
15713;DHT22;7957;51.608;6.916;2023-04-16T02:13:21;8.80;99.90
15713;DHT22;7957;51.608;6.916;2023-04-16T02:15:50;8.80;99.90
15713;DHT22;7957;51.608;6.916;2023-04-16T02:18:17;8.80;99.90
15713;DHT22;7957;51.608;6.916;2023-04-16T02:20:45;8.80;99.90
15713;DHT22;7957;51.608;6.916;2023-04-16T02:23:14;8.80;99.90
15713;DHT22;7957;51.608;6.916;2023-04-16T02:25:42;8.80;99.90
15713;DHT22;7957;51.608;6.916;2023-04-16T02:28:10;8.80;99.90
15713;DHT22;7957;51.608;6.916;2023-04-16T02:30:39;8.80;99.90
15713;DHT22;7957;51.608;6.916;2023-04-16T02:33:08;8.80;99.90
15713;DHT22;7957;51.608;6.916;2023-04-16T02:35:36;8.80;99.90
15713;DHT22;7957;51.608;6.916;2023-04-16T02:38:05;8.80;99.90
15713;DHT22;7957;51.608;6.916;2023-04-16T02:40:32;8.80;99.90
15713;DHT22;7957;51.608;6.916;2023-04-16T02:42:59;8.80;99.90
15713;DHT22;7957;51.608;6.916;2023-04-16T02:45:26;8.80;99.90
15713;DHT22;7957;51.608;6.916;2023-04-16T02:47:55;8.80;99.90
15713;DHT22;7957;51.608;6.916;2023-04-16T02:50:22;8.80;99.90
15713;DHT22;7957;51.608;6.916;2023-04-16T02:52:49;8.80;99.90
15713;DHT22;7957;51.608;6.916;2023-04-16T02:55:16;8.80;99.90
15713;DHT22;7957;51.608;6.916;2023-04-16T02:57:43;8.80;99.90
15713;DHT22;7957;51.608;6.916;2023-04-16T03:00:11;8.80;99.90
15713;DHT22;7957;51.608;6.916;2023-04-16T03:02:37;8.80;99.90
15713;DHT22;7957;51.608;6.916;2023-04-16T03:05:08;8.80;99.90
15713;DHT22;7957;51.608;6.916;2023-04-16T03:07:36;8.80;99.90
15713;DHT22;7957;51.608;6.916;2023-04-16T03:10:04;8.80;99.90
15713;DHT22;7957;51.608;6.916;2023-04-16T03:12:31;8.80;99.90
15713;DHT22;7957;51.608;6.916;2023-04-16T03:14:58;8.80;99.90
15713;DHT22;7957;51.608;6.916;2023-04-16T03:17:25;8.80;99.90
15713;DHT22;7957;51.608;6.916;2023-04-16T03:19:53;8.80;99.90
15713;DHT22;7957;51.608;6.916;2023-04-16T03:22:21;8.80;99.90
15713;DHT22;7957;51.608;6.916;2023-04-16T03:24:49;8.80;99.90
15713;DHT22;7957;51.608;6.916;2023-04-16T03:27:16;8.80;99.90
15713;DHT22;7957;51.608;6.916;2023-04-16T03:29:42;8.80;99.90
15713;DHT22;7957;51.608;6.916;2023-04-16T03:32:10;8.80;99.90
15713;DHT22;7957;51.608;6.916;2023-04-16T03:34:38;8.80;99.90
15713;DHT22;7957;51.608;6.916;2023-04-16T03:37:05;8.80;99.90
15713;DHT22;7957;51.608;6.916;2023-04-16T03:39:34;8.80;99.90
15713;DHT22;7957;51.608;6.916;2023-04-16T03:42:01;8.80;99.90
15713;DHT22;7957;51.608;6.916;2023-04-16T03:44:31;8.80;99.90
15713;DHT22;7957;51.608;6.916;2023-04-16T03:46:58;8.80;99.90
15713;DHT22;7957;51.608;6.916;2023-04-16T03:49:25;8.80;99.90
15713;DHT22;7957;51.608;6.916;2023-04-16T03:51:52;8.80;99.90
15713;DHT22;7957;51.608;6.916;2023-04-16T03:54:19;8.80;99.90
15713;DHT22;7957;51.608;6.916;2023-04-16T03:56:47;8.80;99.90
15713;DHT22;7957;51.608;6.916;2023-04-16T03:59:14;8.80;99.90
15713;DHT22;7957;51.608;6.916;2023-04-16T04:01:41;8.80;99.90
15713;DHT22;7957;51.608;6.916;2023-04-16T04:04:08;8.80;99.90
15713;DHT22;7957;51.608;6.916;2023-04-16T04:06:35;8.80;99.90
15713;DHT22;7957;51.608;6.916;2023-04-16T04:09:02;8.80;99.90
15713;DHT22;7957;51.608;6.916;2023-04-16T04:11:29;8.80;99.90
15713;DHT22;7957;51.608;6.916;2023-04-16T04:13:58;8.80;99.90
15713;DHT22;7957;51.608;6.916;2023-04-16T04:16:25;8.80;99.90
15713;DHT22;7957;51.608;6.916;2023-04-16T04:18:52;8.80;99.90
15713;DHT22;7957;51.608;6.916;2023-04-16T04:21:20;8.80;99.90
15713;DHT22;7957;51.608;6.916;2023-04-16T04:23:47;8.80;99.90
15713;DHT22;7957;51.608;6.916;2023-04-16T04:26:14;8.80;99.90
15713;DHT22;7957;51.608;6.916;2023-04-16T04:28:41;8.80;99.90
15713;DHT22;7957;51.608;6.916;2023-04-16T04:31:10;8.80;99.90
15713;DHT22;7957;51.608;6.916;2023-04-16T04:33:37;8.80;99.90
15713;DHT22;7957;51.608;6.916;2023-04-16T04:36:04;8.80;99.90
15713;DHT22;7957;51.608;6.916;2023-04-16T04:38:31;8.80;99.90
15713;DHT22;7957;51.608;6.916;2023-04-16T04:40:58;8.80;99.90
15713;DHT22;7957;51.608;6.916;2023-04-16T04:43:25;8.80;99.90
15713;DHT22;7957;51.608;6.916;2023-04-16T04:45:53;8.80;99.90
15713;DHT22;7957;51.608;6.916;2023-04-16T04:48:21;8.80;99.90
15713;DHT22;7957;51.608;6.916;2023-04-16T04:50:51;8.80;99.90
15713;DHT22;7957;51.608;6.916;2023-04-16T04:53:18;8.80;99.90
15713;DHT22;7957;51.608;6.916;2023-04-16T04:55:45;8.80;99.90
15713;DHT22;7957;51.608;6.916;2023-04-16T04:58:13;8.80;99.90
15713;DHT22;7957;51.608;6.916;2023-04-16T05:00:40;8.80;99.90
15713;DHT22;7957;51.608;6.916;2023-04-16T05:03:09;8.80;99.90
15713;DHT22;7957;51.608;6.916;2023-04-16T05:05:38;8.80;99.90
15713;DHT22;7957;51.608;6.916;2023-04-16T05:08:05;8.80;99.90
15713;DHT22;7957;51.608;6.916;2023-04-16T05:10:32;8.80;99.90
15713;DHT22;7957;51.608;6.916;2023-04-16T05:12:59;8.80;99.90
15713;DHT22;7957;51.608;6.916;2023-04-16T05:15:26;8.80;99.90
15713;DHT22;7957;51.608;6.916;2023-04-16T05:17:53;8.80;99.90
15713;DHT22;7957;51.608;6.916;2023-04-16T05:20:20;8.80;99.90
15713;DHT22;7957;51.608;6.916;2023-04-16T05:22:49;8.80;99.90
15713;DHT22;7957;51.608;6.916;2023-04-16T05:25:16;8.80;99.90
15713;DHT22;7957;51.608;6.916;2023-04-16T05:27:44;8.80;99.90
15713;DHT22;7957;51.608;6.916;2023-04-16T05:30:11;8.90;99.90
15713;DHT22;7957;51.608;6.916;2023-04-16T05:32:38;8.90;99.90
15713;DHT22;7957;51.608;6.916;2023-04-16T05:35:06;8.90;99.90
15713;DHT22;7957;51.608;6.916;2023-04-16T05:37:34;8.90;99.90
15713;DHT22;7957;51.608;6.916;2023-04-16T05:40:02;8.90;99.90
15713;DHT22;7957;51.608;6.916;2023-04-16T05:42:29;8.90;99.90
15713;DHT22;7957;51.608;6.916;2023-04-16T05:44:56;8.90;99.90
15713;DHT22;7957;51.608;6.916;2023-04-16T05:47:23;8.90;99.90
15713;DHT22;7957;51.608;6.916;2023-04-16T05:49:50;8.90;99.90
15713;DHT22;7957;51.608;6.916;2023-04-16T05:52:18;8.90;99.90
15713;DHT22;7957;51.608;6.916;2023-04-16T05:54:44;8.90;99.90
15713;DHT22;7957;51.608;6.916;2023-04-16T05:57:13;8.90;99.90
15713;DHT22;7957;51.608;6.916;2023-04-16T05:59:40;8.90;99.90
15713;DHT22;7957;51.608;6.916;2023-04-16T06:02:07;8.90;99.90
15713;DHT22;7957;51.608;6.916;2023-04-16T06:04:34;8.90;99.90
15713;DHT22;7957;51.608;6.916;2023-04-16T06:07:01;8.90;99.90
15713;DHT22;7957;51.608;6.916;2023-04-16T06:09:28;8.90;99.90
15713;DHT22;7957;51.608;6.916;2023-04-16T06:11:55;8.90;99.90
15713;DHT22;7957;51.608;6.916;2023-04-16T06:14:24;8.90;99.90
15713;DHT22;7957;51.608;6.916;2023-04-16T06:16:51;9.00;99.90
15713;DHT22;7957;51.608;6.916;2023-04-16T06:19:18;8.90;99.90
15713;DHT22;7957;51.608;6.916;2023-04-16T06:21:45;8.90;99.90
15713;DHT22;7957;51.608;6.916;2023-04-16T06:24:12;8.90;99.90
15713;DHT22;7957;51.608;6.916;2023-04-16T06:26:39;8.90;99.90
15713;DHT22;7957;51.608;6.916;2023-04-16T06:29:06;9.00;99.90
15713;DHT22;7957;51.608;6.916;2023-04-16T06:31:35;8.90;99.90
15713;DHT22;7957;51.608;6.916;2023-04-16T06:34:02;8.90;99.90
15713;DHT22;7957;51.608;6.916;2023-04-16T06:36:29;8.90;99.90
15713;DHT22;7957;51.608;6.916;2023-04-16T06:38:56;8.90;99.90
15713;DHT22;7957;51.608;6.916;2023-04-16T06:41:23;9.00;99.90
15713;DHT22;7957;51.608;6.916;2023-04-16T06:43:51;8.90;99.90
15713;DHT22;7957;51.608;6.916;2023-04-16T06:46:18;9.00;99.90
15713;DHT22;7957;51.608;6.916;2023-04-16T06:48:47;9.00;99.90
15713;DHT22;7957;51.608;6.916;2023-04-16T06:51:14;9.00;99.90
15713;DHT22;7957;51.608;6.916;2023-04-16T06:53:41;9.00;99.90
15713;DHT22;7957;51.608;6.916;2023-04-16T06:56:08;9.00;99.90
15713;DHT22;7957;51.608;6.916;2023-04-16T06:58:35;9.00;99.90
15713;DHT22;7957;51.608;6.916;2023-04-16T07:01:03;9.00;99.90
15713;DHT22;7957;51.608;6.916;2023-04-16T07:03:30;9.10;99.90
15713;DHT22;7957;51.608;6.916;2023-04-16T07:05:58;9.10;99.90
15713;DHT22;7957;51.608;6.916;2023-04-16T07:08:25;9.10;99.90
15713;DHT22;7957;51.608;6.916;2023-04-16T07:10:53;9.10;99.90
15713;DHT22;7957;51.608;6.916;2023-04-16T07:13:20;9.20;99.90
15713;DHT22;7957;51.608;6.916;2023-04-16T07:15:47;9.20;99.90
15713;DHT22;7957;51.608;6.916;2023-04-16T07:18:14;9.20;99.90
15713;DHT22;7957;51.608;6.916;2023-04-16T07:20:42;9.30;99.90
15713;DHT22;7957;51.608;6.916;2023-04-16T07:23:10;9.30;99.90
15713;DHT22;7957;51.608;6.916;2023-04-16T07:25:37;9.30;99.90
15713;DHT22;7957;51.608;6.916;2023-04-16T07:28:04;9.30;99.90
15713;DHT22;7957;51.608;6.916;2023-04-16T07:30:31;9.40;99.90
15713;DHT22;7957;51.608;6.916;2023-04-16T07:32:59;9.40;99.90
15713;DHT22;7957;51.608;6.916;2023-04-16T07:35:26;9.40;99.90
15713;DHT22;7957;51.608;6.916;2023-04-16T07:37:53;9.40;99.90
15713;DHT22;7957;51.608;6.916;2023-04-16T07:40:22;9.40;99.90
15713;DHT22;7957;51.608;6.916;2023-04-16T07:42:49;9.40;99.90
15713;DHT22;7957;51.608;6.916;2023-04-16T07:45:17;9.40;99.90
15713;DHT22;7957;51.608;6.916;2023-04-16T07:47:46;9.40;99.90
15713;DHT22;7957;51.608;6.916;2023-04-16T07:50:13;9.50;99.90
15713;DHT22;7957;51.608;6.916;2023-04-16T07:52:41;9.50;99.90
15713;DHT22;7957;51.608;6.916;2023-04-16T07:55:09;9.50;99.90
15713;DHT22;7957;51.608;6.916;2023-04-16T07:57:38;9.50;99.90
15713;DHT22;7957;51.608;6.916;2023-04-16T08:00:06;9.60;99.90
15713;DHT22;7957;51.608;6.916;2023-04-16T08:02:33;9.60;99.90
15713;DHT22;7957;51.608;6.916;2023-04-16T08:05:01;9.60;99.90
15713;DHT22;7957;51.608;6.916;2023-04-16T08:07:28;9.70;99.90
15713;DHT22;7957;51.608;6.916;2023-04-16T08:09:55;9.70;99.90
15713;DHT22;7957;51.608;6.916;2023-04-16T08:12:22;9.80;99.90
15713;DHT22;7957;51.608;6.916;2023-04-16T08:14:50;9.80;99.90
15713;DHT22;7957;51.608;6.916;2023-04-16T08:17:17;9.90;99.90
15713;DHT22;7957;51.608;6.916;2023-04-16T08:19:44;10.00;99.90
15713;DHT22;7957;51.608;6.916;2023-04-16T08:22:11;10.10;99.90
15713;DHT22;7957;51.608;6.916;2023-04-16T08:24:39;10.10;99.90
15713;DHT22;7957;51.608;6.916;2023-04-16T08:27:06;10.20;99.90
15713;DHT22;7957;51.608;6.916;2023-04-16T08:29:33;10.20;99.90
15713;DHT22;7957;51.608;6.916;2023-04-16T08:32:01;10.20;99.90
15713;DHT22;7957;51.608;6.916;2023-04-16T08:34:28;10.30;99.90
15713;DHT22;7957;51.608;6.916;2023-04-16T08:36:55;10.30;99.90
15713;DHT22;7957;51.608;6.916;2023-04-16T08:39:22;10.30;99.90
15713;DHT22;7957;51.608;6.916;2023-04-16T08:41:49;10.40;99.90
15713;DHT22;7957;51.608;6.916;2023-04-16T08:44:19;10.40;99.90
15713;DHT22;7957;51.608;6.916;2023-04-16T08:46:47;10.50;99.90
15713;DHT22;7957;51.608;6.916;2023-04-16T08:49:16;10.50;99.90
15713;DHT22;7957;51.608;6.916;2023-04-16T08:51:49;10.50;99.90
15713;DHT22;7957;51.608;6.916;2023-04-16T08:54:27;10.50;99.90
15713;DHT22;7957;51.608;6.916;2023-04-16T08:56:57;10.60;99.90
15713;DHT22;7957;51.608;6.916;2023-04-16T08:59:24;10.60;99.90
15713;DHT22;7957;51.608;6.916;2023-04-16T09:01:54;10.60;99.90
15713;DHT22;7957;51.608;6.916;2023-04-16T09:04:27;10.70;99.90
15713;DHT22;7957;51.608;6.916;2023-04-16T09:06:55;10.70;99.90
15713;DHT22;7957;51.608;6.916;2023-04-16T09:09:22;10.70;99.90
15713;DHT22;7957;51.608;6.916;2023-04-16T09:11:50;10.80;99.90
15713;DHT22;7957;51.608;6.916;2023-04-16T09:14:18;10.80;99.90
15713;DHT22;7957;51.608;6.916;2023-04-16T09:16:45;10.90;99.90
15713;DHT22;7957;51.608;6.916;2023-04-16T09:19:13;11.00;99.90
15713;DHT22;7957;51.608;6.916;2023-04-16T09:21:42;11.00;99.90
15713;DHT22;7957;51.608;6.916;2023-04-16T09:24:11;11.10;99.90
15713;DHT22;7957;51.608;6.916;2023-04-16T09:26:38;11.20;99.90
15713;DHT22;7957;51.608;6.916;2023-04-16T09:29:07;11.30;99.90
15713;DHT22;7957;51.608;6.916;2023-04-16T09:31:34;11.30;99.90
15713;DHT22;7957;51.608;6.916;2023-04-16T09:34:03;11.40;99.90
15713;DHT22;7957;51.608;6.916;2023-04-16T09:36:31;11.50;99.90
15713;DHT22;7957;51.608;6.916;2023-04-16T09:39:01;11.50;99.90
15713;DHT22;7957;51.608;6.916;2023-04-16T09:41:29;11.60;99.90
15713;DHT22;7957;51.608;6.916;2023-04-16T09:43:57;11.70;99.90
15713;DHT22;7957;51.608;6.916;2023-04-16T09:46:28;11.70;99.90
15713;DHT22;7957;51.608;6.916;2023-04-16T09:48:56;11.70;99.90
15713;DHT22;7957;51.608;6.916;2023-04-16T09:51:23;11.80;99.90
15713;DHT22;7957;51.608;6.916;2023-04-16T09:53:51;11.80;99.90
15713;DHT22;7957;51.608;6.916;2023-04-16T09:56:23;11.90;99.90
15713;DHT22;7957;51.608;6.916;2023-04-16T09:58:55;11.90;99.90
15713;DHT22;7957;51.608;6.916;2023-04-16T10:01:23;12.00;99.90
15713;DHT22;7957;51.608;6.916;2023-04-16T10:03:53;12.10;99.90
15713;DHT22;7957;51.608;6.916;2023-04-16T10:06:22;12.10;99.90
15713;DHT22;7957;51.608;6.916;2023-04-16T10:08:51;12.10;99.90
15713;DHT22;7957;51.608;6.916;2023-04-16T10:11:22;12.20;99.90
15713;DHT22;7957;51.608;6.916;2023-04-16T10:13:50;12.30;99.90
15713;DHT22;7957;51.608;6.916;2023-04-16T10:16:18;12.30;99.90
15713;DHT22;7957;51.608;6.916;2023-04-16T10:18:45;12.40;99.90
15713;DHT22;7957;51.608;6.916;2023-04-16T10:21:12;12.40;99.90
15713;DHT22;7957;51.608;6.916;2023-04-16T10:23:42;12.50;99.90
15713;DHT22;7957;51.608;6.916;2023-04-16T10:26:09;12.60;99.90
15713;DHT22;7957;51.608;6.916;2023-04-16T10:28:38;12.70;99.90
15713;DHT22;7957;51.608;6.916;2023-04-16T10:31:07;12.70;99.90
15713;DHT22;7957;51.608;6.916;2023-04-16T10:33:38;12.80;99.90
15713;DHT22;7957;51.608;6.916;2023-04-16T10:36:09;12.80;99.90
15713;DHT22;7957;51.608;6.916;2023-04-16T10:38:37;12.90;99.90
15713;DHT22;7957;51.608;6.916;2023-04-16T10:41:05;12.90;99.90
15713;DHT22;7957;51.608;6.916;2023-04-16T10:43:39;12.90;99.90
15713;DHT22;7957;51.608;6.916;2023-04-16T10:46:20;12.90;99.90
15713;DHT22;7957;51.608;6.916;2023-04-16T10:48:49;12.90;99.90
15713;DHT22;7957;51.608;6.916;2023-04-16T10:51:26;12.90;99.90
15713;DHT22;7957;51.608;6.916;2023-04-16T10:53:54;12.90;99.90
15713;DHT22;7957;51.608;6.916;2023-04-16T10:56:22;12.90;99.90
15713;DHT22;7957;51.608;6.916;2023-04-16T10:58:52;13.00;99.90
15713;DHT22;7957;51.608;6.916;2023-04-16T11:01:28;12.90;99.90
15713;DHT22;7957;51.608;6.916;2023-04-16T11:03:58;12.90;99.90
15713;DHT22;7957;51.608;6.916;2023-04-16T11:06:26;12.90;99.90
15713;DHT22;7957;51.608;6.916;2023-04-16T11:08:54;12.90;99.90
15713;DHT22;7957;51.608;6.916;2023-04-16T11:11:21;12.90;99.90
15713;DHT22;7957;51.608;6.916;2023-04-16T11:13:48;12.90;99.90
15713;DHT22;7957;51.608;6.916;2023-04-16T11:16:16;12.90;99.90
15713;DHT22;7957;51.608;6.916;2023-04-16T11:18:44;13.00;99.90
15713;DHT22;7957;51.608;6.916;2023-04-16T11:21:11;13.10;99.90
15713;DHT22;7957;51.608;6.916;2023-04-16T11:23:48;13.20;99.90
15713;DHT22;7957;51.608;6.916;2023-04-16T11:26:26;13.40;99.90
15713;DHT22;7957;51.608;6.916;2023-04-16T11:28:54;13.60;99.90
15713;DHT22;7957;51.608;6.916;2023-04-16T11:31:23;13.60;34.80
15713;DHT22;7957;51.608;6.916;2023-04-16T11:33:57;13.70;1.00
15713;DHT22;7957;51.608;6.916;2023-04-16T11:36:25;13.70;1.00
15713;DHT22;7957;51.608;6.916;2023-04-16T11:39:00;13.90;99.90
15713;DHT22;7957;51.608;6.916;2023-04-16T11:41:28;14.10;99.90
15713;DHT22;7957;51.608;6.916;2023-04-16T11:43:56;14.20;1.00
15713;DHT22;7957;51.608;6.916;2023-04-16T11:46:36;14.30;1.00
15713;DHT22;7957;51.608;6.916;2023-04-16T11:49:04;14.30;99.90
15713;DHT22;7957;51.608;6.916;2023-04-16T11:51:31;14.40;99.90
15713;DHT22;7957;51.608;6.916;2023-04-16T11:53:58;14.40;1.00
15713;DHT22;7957;51.608;6.916;2023-04-16T11:56:26;14.40;1.00
15713;DHT22;7957;51.608;6.916;2023-04-16T11:59:07;14.30;1.00
15713;DHT22;7957;51.608;6.916;2023-04-16T12:01:36;14.20;1.00
15713;DHT22;7957;51.608;6.916;2023-04-16T12:04:04;14.10;99.90
15713;DHT22;7957;51.608;6.916;2023-04-16T12:06:31;13.90;99.90
15713;DHT22;7957;51.608;6.916;2023-04-16T12:08:58;13.90;99.90
15713;DHT22;7957;51.608;6.916;2023-04-16T12:11:38;13.80;99.90
15713;DHT22;7957;51.608;6.916;2023-04-16T12:14:06;13.70;99.90
15713;DHT22;7957;51.608;6.916;2023-04-16T12:16:35;13.70;99.90
15713;DHT22;7957;51.608;6.916;2023-04-16T12:19:04;13.70;99.90
15713;DHT22;7957;51.608;6.916;2023-04-16T12:21:38;13.70;99.90
15713;DHT22;7957;51.608;6.916;2023-04-16T12:24:07;13.60;92.50
15713;DHT22;7957;51.608;6.916;2023-04-16T12:26:40;13.60;87.20
15713;DHT22;7957;51.608;6.916;2023-04-16T12:29:18;13.50;59.10
15713;DHT22;7957;51.608;6.916;2023-04-16T12:31:48;13.50;25.90
15713;DHT22;7957;51.608;6.916;2023-04-16T12:34:15;13.50;1.00
15713;DHT22;7957;51.608;6.916;2023-04-16T12:36:43;13.50;1.00
15713;DHT22;7957;51.608;6.916;2023-04-16T12:39:11;13.40;1.00
15713;DHT22;7957;51.608;6.916;2023-04-16T12:41:40;13.40;1.00
15713;DHT22;7957;51.608;6.916;2023-04-16T12:44:08;13.30;1.00
15713;DHT22;7957;51.608;6.916;2023-04-16T12:46:36;13.30;1.00
15713;DHT22;7957;51.608;6.916;2023-04-16T12:49:05;13.20;1.00
15713;DHT22;7957;51.608;6.916;2023-04-16T12:51:32;13.20;1.00
15713;DHT22;7957;51.608;6.916;2023-04-16T12:54:00;13.20;1.00
15713;DHT22;7957;51.608;6.916;2023-04-16T12:56:28;13.10;1.00
15713;DHT22;7957;51.608;6.916;2023-04-16T12:58:55;13.10;1.00
15713;DHT22;7957;51.608;6.916;2023-04-16T13:01:22;13.20;1.00
15713;DHT22;7957;51.608;6.916;2023-04-16T13:03:49;13.20;1.00
15713;DHT22;7957;51.608;6.916;2023-04-16T13:06:18;13.20;1.00
15713;DHT22;7957;51.608;6.916;2023-04-16T13:08:45;13.30;1.00
15713;DHT22;7957;51.608;6.916;2023-04-16T13:11:12;13.30;1.00
15713;DHT22;7957;51.608;6.916;2023-04-16T13:13:40;13.40;1.00
15713;DHT22;7957;51.608;6.916;2023-04-16T13:16:07;13.50;1.00
15713;DHT22;7957;51.608;6.916;2023-04-16T13:18:35;13.60;1.00
15713;DHT22;7957;51.608;6.916;2023-04-16T13:21:02;13.60;1.00
15713;DHT22;7957;51.608;6.916;2023-04-16T13:23:33;13.70;1.00
15713;DHT22;7957;51.608;6.916;2023-04-16T13:26:00;13.70;1.00
15713;DHT22;7957;51.608;6.916;2023-04-16T13:28:27;13.80;1.00
15713;DHT22;7957;51.608;6.916;2023-04-16T13:30:54;13.80;1.00
15713;DHT22;7957;51.608;6.916;2023-04-16T13:33:21;13.80;1.00
15713;DHT22;7957;51.608;6.916;2023-04-16T13:35:48;13.90;99.90
15713;DHT22;7957;51.608;6.916;2023-04-16T13:38:16;13.90;99.90
15713;DHT22;7957;51.608;6.916;2023-04-16T13:40:44;13.80;99.90
15713;DHT22;7957;51.608;6.916;2023-04-16T13:43:11;13.80;99.90
15713;DHT22;7957;51.608;6.916;2023-04-16T13:45:41;13.80;99.90
15713;DHT22;7957;51.608;6.916;2023-04-16T13:48:08;13.80;99.90
15713;DHT22;7957;51.608;6.916;2023-04-16T13:50:35;13.80;99.90
15713;DHT22;7957;51.608;6.916;2023-04-16T13:53:02;13.80;99.90
15713;DHT22;7957;51.608;6.916;2023-04-16T13:55:30;13.80;99.90
15713;DHT22;7957;51.608;6.916;2023-04-16T13:57:58;13.80;99.90
15713;DHT22;7957;51.608;6.916;2023-04-16T14:00:25;13.90;99.90
15713;DHT22;7957;51.608;6.916;2023-04-16T14:02:52;13.90;99.90
15713;DHT22;7957;51.608;6.916;2023-04-16T14:05:19;13.90;99.90
15713;DHT22;7957;51.608;6.916;2023-04-16T14:07:47;13.90;99.90
15713;DHT22;7957;51.608;6.916;2023-04-16T14:10:14;13.90;93.40
15713;DHT22;7957;51.608;6.916;2023-04-16T14:12:42;13.90;51.10
15713;DHT22;7957;51.608;6.916;2023-04-16T14:15:10;13.80;16.50
15713;DHT22;7957;51.608;6.916;2023-04-16T14:17:39;13.80;1.00
15713;DHT22;7957;51.608;6.916;2023-04-16T14:20:08;13.80;1.00
15713;DHT22;7957;51.608;6.916;2023-04-16T14:22:35;13.80;1.00
15713;DHT22;7957;51.608;6.916;2023-04-16T14:25:02;13.80;1.00
15713;DHT22;7957;51.608;6.916;2023-04-16T14:27:30;13.80;1.00
15713;DHT22;7957;51.608;6.916;2023-04-16T14:29:57;13.80;1.00
15713;DHT22;7957;51.608;6.916;2023-04-16T14:32:25;13.80;1.00
15713;DHT22;7957;51.608;6.916;2023-04-16T14:34:52;13.80;1.00
15713;DHT22;7957;51.608;6.916;2023-04-16T14:37:19;13.90;1.00
15713;DHT22;7957;51.608;6.916;2023-04-16T14:39:46;13.90;1.00
15713;DHT22;7957;51.608;6.916;2023-04-16T14:42:13;14.00;1.00
15713;DHT22;7957;51.608;6.916;2023-04-16T14:44:40;14.10;1.00
15713;DHT22;7957;51.608;6.916;2023-04-16T14:47:08;14.10;1.00
15713;DHT22;7957;51.608;6.916;2023-04-16T14:49:36;14.20;1.00
15713;DHT22;7957;51.608;6.916;2023-04-16T14:52:03;14.20;1.00
15713;DHT22;7957;51.608;6.916;2023-04-16T14:54:31;14.20;1.00
15713;DHT22;7957;51.608;6.916;2023-04-16T14:56:58;14.30;1.00
15713;DHT22;7957;51.608;6.916;2023-04-16T14:59:26;14.40;1.00
15713;DHT22;7957;51.608;6.916;2023-04-16T15:01:54;14.40;1.00
15713;DHT22;7957;51.608;6.916;2023-04-16T15:04:23;14.40;1.00
15713;DHT22;7957;51.608;6.916;2023-04-16T15:06:51;14.40;1.00
15713;DHT22;7957;51.608;6.916;2023-04-16T15:09:23;14.40;1.00
15713;DHT22;7957;51.608;6.916;2023-04-16T15:11:50;14.40;1.00
15713;DHT22;7957;51.608;6.916;2023-04-16T15:14:18;14.50;1.00
15713;DHT22;7957;51.608;6.916;2023-04-16T15:16:45;14.60;99.90
15713;DHT22;7957;51.608;6.916;2023-04-16T15:19:12;14.60;99.90
15713;DHT22;7957;51.608;6.916;2023-04-16T15:21:39;14.60;99.90
15713;DHT22;7957;51.608;6.916;2023-04-16T15:24:08;14.60;99.90
15713;DHT22;7957;51.608;6.916;2023-04-16T15:26:35;14.70;99.90
15713;DHT22;7957;51.608;6.916;2023-04-16T15:29:02;14.80;99.90
15713;DHT22;7957;51.608;6.916;2023-04-16T15:31:29;14.90;99.90
15713;DHT22;7957;51.608;6.916;2023-04-16T15:33:56;15.00;99.90
15713;DHT22;7957;51.608;6.916;2023-04-16T15:36:24;15.00;99.90
15713;DHT22;7957;51.608;6.916;2023-04-16T15:38:51;15.00;99.90
15713;DHT22;7957;51.608;6.916;2023-04-16T15:41:19;15.00;99.90
15713;DHT22;7957;51.608;6.916;2023-04-16T15:43:46;14.90;99.90
15713;DHT22;7957;51.608;6.916;2023-04-16T15:46:13;14.80;99.90
15713;DHT22;7957;51.608;6.916;2023-04-16T15:48:40;14.80;99.90
15713;DHT22;7957;51.608;6.916;2023-04-16T15:51:07;14.70;99.90
15713;DHT22;7957;51.608;6.916;2023-04-16T15:53:34;14.70;99.90
15713;DHT22;7957;51.608;6.916;2023-04-16T15:56:01;14.60;70.30
15713;DHT22;7957;51.608;6.916;2023-04-16T15:58:30;14.50;62.00
15713;DHT22;7957;51.608;6.916;2023-04-16T16:00:57;14.50;65.80